Terminal Aerodrome Forecast
Issued by NWS

Home | Current Version | Previous Version | Text Only | Print | Product List | Glossary On
Versions: 1 2 3 4 5 6 7 8 9 10 11 12 13 14 15 16 17 18 19 20 21 22 23 24 25 26 27 28 29 30 31 32 33 34
000
FTUS44 KLIX 251122
TAFHUM
TAF
KHUM 251122Z 2512/2612 19004KT 5SM BR SCT007
     FM251400 23008KT P6SM SCT035
     FM251900 21007KT P6SM VCTS SCT035CB
      TEMPO 2520/2522 VRB15G25KT 2SM -TSRA OVC020CB
     FM252300 20004KT P6SM BKN050
     FM260400 20005KT P6SM SCT005 BKN010
     FM260800 20003KT 5SM BR BKN005=

USA.gov is the U.S. government's official web portal to all federal, state and local government web resources and services.